createdAt,value
2023-02-04T00:00:31.109Z,-0.26
2023-02-04T00:03:19.328Z,-0.27
2023-02-04T00:05:47.336Z,-0.28
2023-02-04T00:08:15.461Z,-0.26
2023-02-04T00:10:43.458Z,-0.26
2023-02-04T00:13:11.506Z,-0.34
2023-02-04T00:15:39.719Z,-0.46
2023-02-04T00:18:09.498Z,-0.48
2023-02-04T00:20:37.458Z,-0.51
2023-02-04T00:23:05.644Z,-0.54
2023-02-04T00:25:33.607Z,-0.56
2023-02-04T00:28:01.813Z,-0.59
2023-02-04T00:30:30.694Z,-0.61
2023-02-04T00:32:59.068Z,-0.64
2023-02-04T00:35:27.257Z,-0.68
2023-02-04T00:37:56.723Z,-0.73
2023-02-04T00:40:26.647Z,-0.77
2023-02-04T00:42:54.811Z,-0.79
2023-02-04T00:45:22.779Z,-0.84
2023-02-04T00:47:51.155Z,-0.88
2023-02-04T00:50:19.362Z,-0.89
2023-02-04T00:52:47.503Z,-0.90
2023-02-04T00:55:18.320Z,-0.90
2023-02-04T00:57:49.303Z,-0.89
2023-02-04T01:00:18.377Z,-0.89
2023-02-04T01:02:46.552Z,-0.90
2023-02-04T01:05:15.261Z,-0.90
2023-02-04T01:07:43.316Z,-0.94
2023-02-04T01:10:12.167Z,-0.95
2023-02-04T01:12:40.479Z,-0.96
2023-02-04T01:15:09.615Z,-0.95
2023-02-04T01:17:38.496Z,-0.95
2023-02-04T01:20:07.043Z,-0.98
2023-02-04T01:22:35.219Z,-0.97
2023-02-04T01:25:03.728Z,-1.00
2023-02-04T01:27:42.343Z,-1.02
2023-02-04T01:30:11.797Z,-1.01
2023-02-04T01:32:40.004Z,-0.99
2023-02-04T01:35:09.519Z,-0.98
2023-02-04T01:37:37.492Z,-0.97
2023-02-04T01:40:06.667Z,-0.99
2023-02-04T01:42:35.960Z,-1.03
2023-02-04T01:45:06.543Z,-1.04
2023-02-04T01:47:36.509Z,-1.05
2023-02-04T01:50:10.544Z,-1.03
2023-02-04T01:52:40.062Z,-1.03
2023-02-04T01:55:20.176Z,-1.01
2023-02-04T01:57:50.970Z,-1.02
2023-02-04T02:00:26.761Z,-1.01
2023-02-04T02:02:55.877Z,-1.02
2023-02-04T02:05:30.723Z,-1.02
2023-02-04T02:08:02.350Z,-1.02
2023-02-04T02:10:31.663Z,-1.01
2023-02-04T02:13:00.330Z,-1.01
2023-02-04T02:15:28.810Z,-1.02
2023-02-04T02:17:57.091Z,-1.01
2023-02-04T02:20:26.692Z,-0.99
2023-02-04T02:23:15.462Z,-0.97
2023-02-04T02:25:45.157Z,-0.97
2023-02-04T02:28:17.201Z,-0.98
2023-02-04T02:30:46.417Z,-0.97
2023-02-04T02:33:15.924Z,-0.97
2023-02-04T02:35:48.558Z,-0.97
2023-02-04T02:38:19.230Z,-0.98
2023-02-04T02:40:49.341Z,-0.99
2023-02-04T02:43:21.732Z,-1.01
2023-02-04T02:45:50.539Z,-1.01
2023-02-04T02:48:19.235Z,-1.01
2023-02-04T02:50:48.926Z,-1.01
2023-02-04T02:53:20.477Z,-1.06
2023-02-04T02:55:50.066Z,-1.07
2023-02-04T02:58:29.195Z,-1.06
2023-02-04T03:00:58.220Z,-1.08
2023-02-04T03:03:33.617Z,-1.09
2023-02-04T03:06:10.325Z,-1.09
2023-02-04T03:08:39.798Z,-1.09
2023-02-04T03:11:07.900Z,-1.10
2023-02-04T03:13:37.273Z,-1.10
2023-02-04T03:16:06.665Z,-1.10
2023-02-04T03:18:36.917Z,-1.10
2023-02-04T03:21:06.940Z,-1.09
2023-02-04T03:23:36.932Z,-1.09
2023-02-04T03:26:06.365Z,-1.11
2023-02-04T03:28:34.512Z,-1.11
2023-02-04T03:31:03.417Z,-1.09
2023-02-04T03:33:31.796Z,-1.08
2023-02-04T03:36:00.160Z,-1.09
2023-02-04T03:38:28.380Z,-1.08
2023-02-04T03:40:56.412Z,-1.09
2023-02-04T03:43:24.472Z,-1.10
2023-02-04T03:45:52.507Z,-1.14
2023-02-04T03:48:20.925Z,-1.14
2023-02-04T03:50:48.995Z,-1.13
2023-02-04T03:53:17.105Z,-1.12
2023-02-04T03:55:45.146Z,-1.11
2023-02-04T03:58:15.615Z,-1.12
2023-02-04T04:00:43.660Z,-1.12
2023-02-04T04:03:11.758Z,-1.12
2023-02-04T04:05:39.883Z,-1.10
2023-02-04T04:08:07.847Z,-1.09
2023-02-04T04:10:35.923Z,-1.08
2023-02-04T04:13:04.094Z,-1.11
2023-02-04T04:15:32.375Z,-1.16
2023-02-04T04:18:00.749Z,-1.19
2023-02-04T04:20:29.507Z,-1.24
2023-02-04T04:22:57.605Z,-1.29
2023-02-04T04:25:26.289Z,-1.35
2023-02-04T04:27:54.508Z,-1.41
2023-02-04T04:30:22.536Z,-1.47
2023-02-04T04:32:50.582Z,-1.52
2023-02-04T04:35:18.773Z,-1.59
2023-02-04T04:37:48.097Z,-1.65
2023-02-04T04:40:16.372Z,-1.68
2023-02-04T04:42:44.418Z,-1.71
2023-02-04T04:45:14.581Z,-1.76
2023-02-04T04:47:42.939Z,-1.81
2023-02-04T04:50:11.190Z,-1.84
2023-02-04T04:52:39.771Z,-1.89
2023-02-04T04:55:08.801Z,-1.94
2023-02-04T04:57:36.837Z,-1.99
2023-02-04T05:00:07.059Z,-1.97
2023-02-04T05:02:35.128Z,-1.93
2023-02-04T05:05:03.227Z,-1.89
2023-02-04T05:07:31.272Z,-1.87
2023-02-04T05:09:59.364Z,-1.84
2023-02-04T05:12:27.425Z,-1.80
2023-02-04T05:14:55.489Z,-1.77
2023-02-04T05:17:23.471Z,-1.76
2023-02-04T05:19:51.631Z,-1.74
2023-02-04T05:22:19.704Z,-1.72
2023-02-04T05:24:47.672Z,-1.69
2023-02-04T05:27:15.751Z,-1.68
2023-02-04T05:29:43.742Z,-1.65
2023-02-04T05:32:11.785Z,-1.65
2023-02-04T05:34:40.100Z,-1.62
2023-02-04T05:37:08.131Z,-1.61
2023-02-04T05:39:36.404Z,-1.60
2023-02-04T05:42:04.386Z,-1.59
2023-02-04T05:44:32.350Z,-1.58
2023-02-04T05:47:00.550Z,-1.56
2023-02-04T05:49:28.789Z,-1.53
2023-02-04T05:51:56.875Z,-1.54
2023-02-04T05:54:25.035Z,-1.53
2023-02-04T05:56:53.252Z,-1.54
2023-02-04T05:59:21.278Z,-1.51
2023-02-04T06:01:49.349Z,-1.50
2023-02-04T06:04:18.107Z,-1.46
2023-02-04T06:06:46.205Z,-1.46
2023-02-04T06:09:14.279Z,-1.45
2023-02-04T06:11:42.268Z,-1.45
2023-02-04T06:14:11.154Z,-1.44
2023-02-04T06:16:39.533Z,-1.44
2023-02-04T06:19:07.716Z,-1.43
2023-02-04T06:21:35.759Z,-1.44
2023-02-04T06:24:05.433Z,-1.43
2023-02-04T06:26:33.639Z,-1.44
2023-02-04T06:29:02.024Z,-1.41
2023-02-04T06:31:30.383Z,-1.40
2023-02-04T06:33:58.569Z,-1.41
2023-02-04T06:36:26.763Z,-1.41
2023-02-04T06:38:55.121Z,-1.42
2023-02-04T06:41:23.334Z,-1.41
2023-02-04T06:43:51.296Z,-1.40
2023-02-04T06:46:19.491Z,-1.40
2023-02-04T06:48:47.655Z,-1.37
2023-02-04T06:51:15.783Z,-1.33
2023-02-04T06:54:00.579Z,-1.30
2023-02-04T06:56:29.978Z,-1.32
2023-02-04T06:58:58.018Z,-1.33
2023-02-04T07:01:26.127Z,-1.36
2023-02-04T07:03:54.338Z,-1.37
2023-02-04T07:06:26.678Z,-1.37
2023-02-04T07:08:56.048Z,-1.37
2023-02-04T07:11:24.013Z,-1.38
2023-02-04T07:13:51.957Z,-1.38
2023-02-04T07:16:19.917Z,-1.33
2023-02-04T07:18:48.033Z,-1.29
2023-02-04T07:21:15.983Z,-1.28
2023-02-04T07:23:43.936Z,-1.30
2023-02-04T07:26:11.854Z,-1.33
2023-02-04T07:28:41.335Z,-1.35
2023-02-04T07:31:09.433Z,-1.41
2023-02-04T07:33:38.042Z,-1.47
2023-02-04T07:36:06.150Z,-1.53
2023-02-04T07:38:34.156Z,-1.54
2023-02-04T07:41:02.131Z,-1.47
2023-02-04T07:43:30.215Z,-1.40
2023-02-04T07:45:58.181Z,-1.33
2023-02-04T07:48:26.156Z,-1.27
2023-02-04T07:50:54.296Z,-1.23
2023-02-04T07:53:22.251Z,-1.19
2023-02-04T07:55:50.235Z,-1.19
2023-02-04T07:58:18.158Z,-1.30
2023-02-04T08:00:46.021Z,-1.35
2023-02-04T08:03:14.138Z,-1.44
2023-02-04T08:05:42.148Z,-1.52
2023-02-04T08:08:10.045Z,-1.58
2023-02-04T08:10:37.904Z,-1.58
2023-02-04T08:13:05.996Z,-1.59
2023-02-04T08:15:34.411Z,-1.63
2023-02-04T08:18:02.362Z,-1.65
2023-02-04T08:20:30.969Z,-1.68
2023-02-04T08:22:59.350Z,-1.69
2023-02-04T08:25:29.009Z,-1.69
2023-02-04T08:27:56.949Z,-1.70
2023-02-04T08:30:24.905Z,-1.70
2023-02-04T08:32:52.755Z,-1.71
2023-02-04T08:35:20.617Z,-1.77
2023-02-04T08:37:48.533Z,-1.79
2023-02-04T08:40:16.453Z,-1.79
2023-02-04T08:42:44.312Z,-1.81
2023-02-04T08:54:22.896Z,-1.76
2023-02-04T09:06:00.501Z,-1.79
2023-02-04T09:08:28.501Z,-1.76
2023-02-04T09:10:56.442Z,-1.72
2023-02-04T09:13:24.496Z,-1.66
2023-02-04T09:15:54.223Z,-1.60
2023-02-04T09:18:22.832Z,-1.58
2023-02-04T09:20:51.703Z,-1.56
2023-02-04T09:23:20.053Z,-1.52
2023-02-04T09:25:47.937Z,-1.49
2023-02-04T09:28:17.323Z,-1.47
2023-02-04T09:30:47.128Z,-1.53
2023-02-04T09:33:19.540Z,-1.57
2023-02-04T09:35:47.430Z,-1.61
2023-02-04T09:38:15.544Z,-1.61
2023-02-04T09:40:49.698Z,-1.61
2023-02-04T09:43:22.606Z,-1.59
2023-02-04T09:45:50.991Z,-1.55
2023-02-04T09:48:19.725Z,-1.49
2023-02-04T09:50:48.661Z,-1.47
2023-02-04T09:58:17.483Z,-1.41
2023-02-04T10:00:47.698Z,-1.36
2023-02-04T10:07:47.948Z,-1.30
2023-02-04T10:10:22.758Z,-1.31
2023-02-04T10:12:52.903Z,-1.32
2023-02-04T10:15:22.127Z,-1.36
2023-02-04T10:17:54.620Z,-1.34
2023-02-04T10:20:25.112Z,-1.31
2023-02-04T10:22:55.115Z,-1.29
2023-02-04T10:25:25.107Z,-1.29
2023-02-04T10:28:00.730Z,-1.27
2023-02-04T10:30:34.045Z,-1.23
2023-02-04T10:33:13.969Z,-1.21
2023-02-04T10:35:50.385Z,-1.15
2023-02-04T10:38:18.934Z,-1.06
2023-02-04T10:40:47.422Z,-1.03
2023-02-04T10:43:21.915Z,-1.04
2023-02-04T10:46:02.780Z,-1.10
2023-02-04T10:48:39.199Z,-1.00
2023-02-04T10:51:12.896Z,-0.72
2023-02-04T10:53:59.571Z,-0.50
2023-02-04T10:56:27.627Z,-0.30
2023-02-04T10:58:55.487Z,-0.21
2023-02-04T11:01:28.793Z,-0.10
2023-02-04T11:03:57.025Z,-0.08
2023-02-04T11:06:25.219Z,-0.18
2023-02-04T11:08:55.354Z,-0.32
2023-02-04T11:11:26.014Z,-0.38
2023-02-04T11:13:55.172Z,-0.54
2023-02-04T11:30:22.167Z,-0.49
2023-02-04T11:33:24.435Z,-0.42
2023-02-04T11:36:04.612Z,-0.26
2023-02-04T11:38:33.932Z,-0.26
2023-02-04T11:41:02.121Z,-0.24
2023-02-04T11:43:34.758Z,-0.23
2023-02-04T11:46:15.168Z,-0.27
2023-02-04T11:48:44.026Z,-0.25
2023-02-04T11:51:15.325Z,-0.22
2023-02-04T11:53:43.729Z,-0.19
2023-02-04T11:56:19.166Z,-0.23
2023-02-04T11:58:51.004Z,-0.32
2023-02-04T12:01:21.381Z,-0.30
2023-02-04T12:04:00.946Z,-0.36
2023-02-04T12:06:33.064Z,-0.35
2023-02-04T12:09:16.074Z,-0.43
2023-02-04T12:11:55.111Z,-0.46
2023-02-04T12:14:29.445Z,-0.48
2023-02-04T12:16:57.541Z,-0.44
2023-02-04T12:19:27.552Z,-0.41
2023-02-04T12:21:56.094Z,-0.39
2023-02-04T12:24:24.199Z,-0.41
2023-02-04T12:26:52.449Z,-0.43
2023-02-04T12:29:20.457Z,-0.42
2023-02-04T12:31:48.904Z,-0.39
2023-02-04T12:34:17.628Z,-0.34
2023-02-04T12:36:45.660Z,-0.27
2023-02-04T12:39:13.662Z,-0.22
2023-02-04T12:41:41.551Z,-0.20
2023-02-04T12:44:09.492Z,-0.21
2023-02-04T12:46:37.552Z,-0.23
2023-02-04T12:49:07.022Z,-0.20
2023-02-04T12:51:35.754Z,-0.19
2023-02-04T12:54:03.793Z,-0.19
2023-02-04T12:56:33.416Z,-0.23
2023-02-04T12:59:01.493Z,-0.23
2023-02-04T13:01:30.342Z,-0.20
2023-02-04T13:03:58.779Z,-0.16
2023-02-04T13:06:26.795Z,-0.20
2023-02-04T13:08:54.946Z,-0.30
2023-02-04T13:11:23.587Z,-0.33
2023-02-04T13:13:51.953Z,-0.30
2023-02-04T13:16:22.928Z,-0.25
2023-02-04T13:18:51.504Z,-0.23
2023-02-04T13:21:20.524Z,-0.19
2023-02-04T13:23:48.586Z,-0.18
2023-02-04T13:26:18.478Z,-0.20
2023-02-04T13:28:46.582Z,-0.22
2023-02-04T13:31:14.672Z,-0.26
2023-02-04T13:33:43.390Z,-0.34
2023-02-04T13:36:11.410Z,-0.45
2023-02-04T13:38:39.465Z,-0.55
2023-02-04T13:41:08.148Z,-0.62
2023-02-04T13:43:36.694Z,-0.69
2023-02-04T13:46:06.585Z,-0.78
2023-02-04T13:48:36.709Z,-0.85
2023-02-04T13:51:05.064Z,-0.92
2023-02-04T13:53:33.082Z,-1.01
2023-02-04T13:56:01.752Z,-1.10
2023-02-04T13:58:31.444Z,-1.19
2023-02-04T14:01:02.501Z,-1.26
2023-02-04T14:03:33.446Z,-1.32
2023-02-04T14:06:05.435Z,-1.38
2023-02-04T14:08:37.482Z,-1.38
2023-02-04T14:11:09.460Z,-1.35
2023-02-04T14:13:40.448Z,-1.31
2023-02-04T14:16:12.484Z,-1.25
2023-02-04T14:18:44.977Z,-1.21
2023-02-04T14:21:15.694Z,-1.16
2023-02-04T14:23:46.509Z,-1.15
2023-02-04T14:26:18.477Z,-1.18
2023-02-04T14:28:49.957Z,-1.14
2023-02-04T14:31:21.573Z,-1.13
2023-02-04T14:33:53.467Z,-1.15
2023-02-04T14:36:25.721Z,-1.17
2023-02-04T14:38:57.479Z,-1.18
2023-02-04T14:41:31.489Z,-1.19
2023-02-04T14:44:04.474Z,-1.23
2023-02-04T14:46:35.503Z,-1.30
2023-02-04T14:49:06.497Z,-1.39
2023-02-04T14:51:39.528Z,-1.48
2023-02-04T14:54:11.182Z,-1.59
2023-02-04T15:04:16.009Z,-1.98
2023-02-04T15:06:46.229Z,-2.07
2023-02-04T15:09:14.472Z,-2.15
2023-02-04T15:11:43.788Z,-2.25
2023-02-04T15:14:11.864Z,-2.33
2023-02-04T15:16:40.890Z,-2.42
2023-02-04T15:19:09.645Z,-2.47
2023-02-04T15:21:37.642Z,-2.55
2023-02-04T15:24:05.889Z,-2.63
2023-02-04T15:26:33.848Z,-2.70
2023-02-04T15:29:02.024Z,-2.77
2023-02-04T15:31:30.061Z,-2.80
2023-02-04T15:33:58.602Z,-2.86
2023-02-04T15:36:27.075Z,-2.91
2023-02-04T15:38:55.124Z,-2.97
2023-02-04T15:41:23.718Z,-3.05
2023-02-04T15:43:51.784Z,-3.10
2023-02-04T15:46:19.883Z,-3.15
2023-02-04T15:48:49.080Z,-3.18
2023-02-04T15:51:17.532Z,-3.23
2023-02-04T15:53:45.511Z,-3.26
2023-02-04T15:56:13.880Z,-3.30
2023-02-04T15:58:41.844Z,-3.30
2023-02-04T16:01:10.072Z,-3.27
2023-02-04T16:03:38.193Z,-3.24
2023-02-04T16:06:06.673Z,-3.23
2023-02-04T16:08:34.849Z,-3.23
2023-02-04T16:11:04.312Z,-3.21
2023-02-04T16:13:33.554Z,-3.18
2023-02-04T16:16:01.592Z,-3.16
2023-02-04T16:18:29.926Z,-3.13
2023-02-04T16:20:58.075Z,-3.10
2023-02-04T16:23:26.040Z,-3.08
2023-02-04T16:25:54.521Z,-3.07
2023-02-04T16:28:22.775Z,-3.09
2023-02-04T16:30:50.973Z,-3.11
2023-02-04T16:33:19.142Z,-3.15
2023-02-04T16:36:04.116Z,-3.20
2023-02-04T16:38:32.719Z,-3.24
2023-02-04T16:41:01.082Z,-3.28
2023-02-04T16:43:29.037Z,-3.29
2023-02-04T16:45:57.028Z,-3.32
2023-02-04T16:48:25.073Z,-3.35
2023-02-04T16:50:53.505Z,-3.37
2023-02-04T16:53:22.345Z,-3.40
2023-02-04T16:55:50.305Z,-3.44
2023-02-04T16:58:19.635Z,-3.48
2023-02-04T17:00:48.803Z,-3.52
2023-02-04T17:03:16.879Z,-3.57
2023-02-04T17:05:45.061Z,-3.62
2023-02-04T17:08:15.270Z,-3.66
2023-02-04T17:11:02.417Z,-3.71
2023-02-04T17:13:30.483Z,-3.72
2023-02-04T17:16:01.272Z,-3.72
2023-02-04T17:18:30.701Z,-3.70
2023-02-04T17:20:59.689Z,-3.70
2023-02-04T17:23:28.926Z,-3.72
2023-02-04T17:25:57.066Z,-3.72
2023-02-04T17:28:26.360Z,-3.72
2023-02-04T17:30:54.772Z,-3.72
2023-02-04T17:33:23.324Z,-3.70
2023-02-04T17:35:51.323Z,-3.68
2023-02-04T17:38:19.468Z,-3.68
2023-02-04T17:40:47.847Z,-3.70
2023-02-04T17:43:16.763Z,-3.71
2023-02-04T17:45:44.809Z,-3.70
2023-02-04T17:48:13.630Z,-3.67
2023-02-04T17:50:43.533Z,-3.64
2023-02-04T17:53:12.504Z,-3.62
2023-02-04T17:55:40.502Z,-3.59
2023-02-04T17:58:31.008Z,-3.58
2023-02-04T18:00:59.848Z,-3.56
2023-02-04T18:03:29.378Z,-3.55
2023-02-04T18:05:57.859Z,-3.53
2023-02-04T18:08:35.326Z,-3.53
2023-02-04T18:11:03.277Z,-3.53
2023-02-04T18:13:34.210Z,-3.50
2023-02-04T18:16:22.605Z,-3.46
2023-02-04T18:18:53.691Z,-3.42
2023-02-04T18:21:31.372Z,-3.39
2023-02-04T18:24:13.159Z,-3.36
2023-02-04T18:26:52.702Z,-3.33
2023-02-04T18:29:33.739Z,-3.32
2023-02-04T18:32:18.739Z,-3.32
2023-02-04T18:34:50.525Z,-3.31
2023-02-04T18:37:29.527Z,-3.29
2023-02-04T18:40:17.648Z,-3.28
2023-02-04T18:42:47.244Z,-3.28
2023-02-04T18:45:26.665Z,-3.27
2023-02-04T18:48:19.293Z,-3.28
2023-02-04T18:50:52.354Z,-3.30
2023-02-04T18:53:28.056Z,-3.30
2023-02-04T18:55:58.783Z,-3.28
2023-02-04T18:58:34.979Z,-3.25
2023-02-04T19:01:16.900Z,-3.22
2023-02-04T19:04:02.326Z,-3.19
2023-02-04T19:06:33.054Z,-3.18
2023-02-04T19:09:06.751Z,-3.16
2023-02-04T19:11:38.281Z,-3.13
2023-02-04T19:14:19.265Z,-3.11
2023-02-04T19:16:50.849Z,-3.10
2023-02-04T19:19:40.862Z,-3.10
2023-02-04T19:22:24.289Z,-3.13
2023-02-04T19:25:00.138Z,-3.15
2023-02-04T19:27:30.043Z,-3.18
2023-02-04T19:30:02.678Z,-3.21
2023-02-04T19:32:44.794Z,-3.26
2023-02-04T19:35:19.902Z,-3.30
2023-02-04T19:37:56.822Z,-3.31
2023-02-04T19:40:24.780Z,-3.32
2023-02-04T19:42:55.665Z,-3.31
2023-02-04T19:45:26.017Z,-3.31
2023-02-04T19:47:55.895Z,-3.29
2023-02-04T19:50:32.334Z,-3.27
2023-02-04T19:53:09.405Z,-3.23
2023-02-04T19:55:51.112Z,-3.25
2023-02-04T19:58:19.184Z,-3.26
2023-02-04T20:01:02.041Z,-3.27
2023-02-04T20:03:35.769Z,-3.27
2023-02-04T20:06:10.154Z,-3.29
2023-02-04T20:08:45.859Z,-3.30
2023-02-04T20:11:28.989Z,-3.33
2023-02-04T20:14:10.592Z,-3.32
2023-02-04T20:16:40.824Z,-3.32
2023-02-04T20:19:19.819Z,-3.29
2023-02-04T20:22:17.185Z,-3.26
2023-02-04T20:24:50.778Z,-3.24
2023-02-04T20:27:36.461Z,-3.22
2023-02-04T20:30:08.581Z,-3.23
2023-02-04T20:32:50.140Z,-3.23
2023-02-04T20:35:18.188Z,-3.20
2023-02-04T20:37:52.551Z,-3.21
2023-02-04T20:40:21.615Z,-3.21
2023-02-04T20:42:53.056Z,-3.23
2023-02-04T20:45:36.439Z,-3.25
2023-02-04T20:48:13.429Z,-3.27
2023-02-04T20:50:43.421Z,-3.27
2023-02-04T20:53:11.798Z,-3.26
2023-02-04T20:55:39.824Z,-3.27
2023-02-04T20:58:07.677Z,-3.26
2023-02-04T21:00:38.394Z,-3.23
2023-02-04T21:03:23.121Z,-3.21
2023-02-04T21:05:52.656Z,-3.18
2023-02-04T21:12:59.334Z,-3.12
2023-02-04T21:15:27.299Z,-3.12
2023-02-04T21:17:55.193Z,-3.08
2023-02-04T21:20:23.062Z,-3.07
2023-02-04T21:22:50.959Z,-3.08
2023-02-04T21:25:19.827Z,-3.10
2023-02-04T21:27:48.299Z,-3.15
2023-02-04T21:30:17.539Z,-3.16
2023-02-04T21:32:45.426Z,-3.18
2023-02-04T21:35:13.390Z,-3.20
2023-02-04T21:46:50.902Z,-3.52
2023-02-04T21:49:18.784Z,-3.61
2023-02-04T21:51:46.854Z,-3.67
2023-02-04T21:54:14.791Z,-3.71
2023-02-04T21:56:42.690Z,-3.74
2023-02-04T21:59:10.601Z,-3.78
2023-02-04T22:01:38.486Z,-3.83
2023-02-04T22:04:06.440Z,-3.88
2023-02-04T22:06:34.329Z,-3.93
2023-02-04T22:09:02.217Z,-3.99
2023-02-04T22:11:30.381Z,-4.03
2023-02-04T22:14:17.384Z,-4.09
2023-02-04T22:16:46.595Z,-4.14
2023-02-04T22:19:14.475Z,-4.14
2023-02-04T22:21:42.376Z,-4.11
2023-02-04T22:24:10.241Z,-4.06
2023-02-04T22:26:38.153Z,-4.04
2023-02-04T22:29:06.025Z,-4.07
2023-02-04T22:31:33.981Z,-4.14
2023-02-04T22:34:02.527Z,-4.19
2023-02-04T22:36:30.612Z,-4.24
2023-02-04T22:38:58.513Z,-4.26
2023-02-04T22:41:26.391Z,-4.28
2023-02-04T22:43:54.289Z,-4.31
2023-02-04T22:46:22.250Z,-4.34
2023-02-04T22:48:50.218Z,-4.40
2023-02-04T22:51:18.077Z,-4.45
2023-02-04T22:53:45.957Z,-4.47
2023-02-04T22:56:14.941Z,-4.49
2023-02-04T22:58:43.588Z,-4.53
2023-02-04T23:01:11.491Z,-4.58
2023-02-04T23:03:39.505Z,-4.63
2023-02-04T23:06:07.502Z,-4.68
2023-02-04T23:08:35.620Z,-4.69
2023-02-04T23:11:03.512Z,-4.71
2023-02-04T23:13:32.155Z,-4.75
2023-02-04T23:16:00.317Z,-4.80
2023-02-04T23:18:28.277Z,-4.87
2023-02-04T23:20:56.458Z,-4.94
2023-02-04T23:23:24.605Z,-4.98
2023-02-04T23:25:52.529Z,-5.02
2023-02-04T23:33:10.926Z,-5.10
2023-02-04T23:35:38.856Z,-5.15
2023-02-04T23:38:06.906Z,-5.21
2023-02-04T23:40:34.922Z,-5.21
2023-02-04T23:43:02.948Z,-5.23
2023-02-04T23:45:31.152Z,-5.23
2023-02-04T23:47:59.249Z,-5.23
2023-02-04T23:50:27.201Z,-5.24
2023-02-04T23:52:55.082Z,-5.29
2023-02-04T23:55:22.972Z,-5.32
2023-02-04T23:57:50.946Z,-5.34
